Portada
METAR-TAF:

METAR-TAF

Aeroports :

Trieste, Itàlia

latitud: 45-39N, longitud: 013-45E, altitud: 8 m

Observació

L'informe es va fer fa 45 minuts, a les 09:55 UTC
Vent 10 kt del Est/Nord-Est amb ràfegues de 22 kt, variant entre Nord i Est/Sud-Est
Temperatura 28°C
Humitat 40%
Pressió 1010 hPa

METAR: LIVT 230955Z AUTO 06010G22KT 360V110 //// 28/13 Q1010

Hora: 12:40 (10:40 UTC)


TAF: manca

Observacions i pronòstics meteorològics de més de 4000 aeroports (METAR i TAF).

Les estacions disponibles són els punts grocs i vermells al mapa.

Posi el ratolí al punt desitjat per veure el nom de l'estació.

Feu clic per veure les observacions i els pronòstics meteorològics.

Per canviar el mapa: feu clic els botons verds amb una creu de color negre per apropar; al botó verd amb un guió per allunyar la imatge; o en les fletxes verdes per a mapes adjacents.


METAR-TAF: